Time;durP1;ratioP1;P1;durP2;ratioP2;P2;SDS_P1;SDS_P2;PMS_P1;PMS_P2;Temp;Humidity;BMP_temperature;BMP_pressure;BME280_temperature;BME280_humidity;BME280_pressure;Samples;Min_cycle;Max_cycle;Signal;HPM_P1;HPM_P2
2024/02/24 00:01:14;;;;;;;6.28;3.40;;;;;;;5.19;100.00;96915.50;5008538;28;20128;-66
2024/02/24 00:03:39;;;;;;;5.45;2.53;;;;;;;5.20;100.00;96912.00;5008938;28;20094;-66
2024/02/24 00:06:05;;;;;;;5.93;2.60;;;;;;;5.24;100.00;96909.91;4993225;28;20534;-67
2024/02/24 00:08:32;;;;;;;5.75;3.10;;;;;;;5.27;100.00;96922.47;5002278;28;20045;-67
2024/02/24 00:10:58;;;;;;;6.07;2.90;;;;;;;4.94;100.00;96872.53;5007703;28;20033;-66
2024/02/24 00:13:25;;;;;;;6.15;2.92;;;;;;;5.20;100.00;96914.56;5009983;28;20052;-65
2024/02/24 00:15:51;;;;;;;5.80;2.95;;;;;;;5.25;100.00;96926.19;5012739;28;20064;-67
2024/02/24 00:18:21;;;;;;;5.78;3.13;;;;;;;5.39;100.00;96944.47;5006389;28;20026;-66
2024/02/24 00:20:46;;;;;;;6.70;3.03;;;;;;;5.21;100.00;96897.34;5008252;28;20018;-66
2024/02/24 00:23:12;;;;;;;6.57;3.50;;;;;;;5.54;100.00;96942.13;5002134;28;20694;-66
2024/02/24 00:25:42;;;;;;;7.05;3.50;;;;;;;5.62;100.00;96943.91;4994294;28;20852;-66
2024/02/24 00:28:09;;;;;;;5.65;2.83;;;;;;;5.66;100.00;96958.16;5009525;28;20034;-65
2024/02/24 00:30:37;;;;;;;5.70;2.60;;;;;;;5.58;100.00;96971.81;4990682;28;20045;-66
2024/02/24 00:33:05;;;;;;;5.15;2.70;;;;;;;5.57;100.00;96967.59;5004881;28;20030;-65
2024/02/24 00:35:31;;;;;;;5.43;2.80;;;;;;;5.64;100.00;96977.28;5012257;28;20735;-67
2024/02/24 00:37:56;;;;;;;5.05;2.50;;;;;;;5.49;100.00;96982.22;4998319;28;20036;-66
2024/02/24 00:40:22;;;;;;;4.55;2.05;;;;;;;5.43;100.00;96973.31;5007527;28;20040;-65
2024/02/24 00:42:47;;;;;;;5.47;2.17;;;;;;;5.39;100.00;96977.97;5001062;28;20079;-66
2024/02/24 00:45:17;;;;;;;5.00;2.28;;;;;;;5.34;100.00;96972.47;5008232;28;20026;-66
2024/02/24 00:47:43;;;;;;;5.03;2.38;;;;;;;5.29;100.00;96964.38;5003004;28;20069;-65
2024/02/24 00:50:13;;;;;;;5.72;2.40;;;;;;;5.28;100.00;96956.81;5002944;28;20122;-66
2024/02/24 00:52:41;;;;;;;6.13;2.50;;;;;;;5.24;100.00;96958.06;4987612;28;20703;-66
2024/02/24 00:55:10;;;;;;;5.85;2.15;;;;;;;4.95;100.00;96907.66;5018072;28;20025;-65
2024/02/24 00:57:38;;;;;;;4.55;2.03;;;;;;;5.22;100.00;96947.91;5006151;28;20131;-67
2024/02/24 01:00:04;;;;;;;5.70;2.67;;;;;;;5.22;100.00;96944.50;5000143;28;20657;-66
2024/02/24 01:02:32;;;;;;;4.65;2.17;;;;;;;5.13;100.00;96949.63;4993668;28;20096;-66
2024/02/24 01:05:00;;;;;;;5.40;2.47;;;;;;;4.83;100.00;96917.38;4990689;28;20536;-67
2024/02/24 01:07:28;;;;;;;5.13;2.45;;;;;;;4.69;100.00;96898.13;5009174;28;20136;-65
2024/02/24 01:09:56;;;;;;;5.07;2.40;;;;;;;5.05;100.00;96948.75;5007358;28;20455;-67
2024/02/24 01:12:23;;;;;;;5.63;2.20;;;;;;;5.06;100.00;96947.81;5004623;28;20156;-65
2024/02/24 01:14:49;;;;;;;5.30;2.28;;;;;;;5.04;100.00;96944.56;5008587;28;20046;-67
2024/02/24 01:17:16;;;;;;;4.55;1.92;;;;;;;5.06;100.00;96940.09;4995799;28;20033;-65
2024/02/24 01:19:44;;;;;;;4.65;2.10;;;;;;;5.01;100.00;96946.47;5011566;28;20065;-66
2024/02/24 01:22:12;;;;;;;4.93;2.10;;;;;;;4.68;100.00;96906.00;4998981;28;20025;-65
2024/02/24 01:24:37;;;;;;;5.43;2.38;;;;;;;4.73;100.00;96907.16;5006593;28;20109;-65
2024/02/24 01:27:05;;;;;;;5.25;2.08;;;;;;;5.00;100.00;96951.78;5004517;28;20030;-66
2024/02/24 01:29:33;;;;;;;5.53;2.03;;;;;;;4.94;100.00;96953.19;5008972;28;20693;-67
2024/02/24 01:32:01;;;;;;;5.22;2.40;;;;;;;5.03;100.00;96963.56;5012634;28;20544;-67
2024/02/24 01:34:29;;;;;;;4.65;2.00;;;;;;;5.07;100.00;96975.97;4995743;28;20596;-66
2024/02/24 01:36:54;;;;;;;4.03;1.48;;;;;;;4.85;100.00;96933.47;4996006;28;20029;-66
2024/02/24 01:39:22;;;;;;;4.68;1.70;;;;;;;5.02;100.00;96970.50;5006620;28;20356;-67
2024/02/24 01:41:48;;;;;;;4.88;1.80;;;;;;;5.09;100.00;96976.66;5009110;28;20057;-67
2024/02/24 01:44:18;;;;;;;4.75;1.55;;;;;;;5.19;100.00;96990.25;5011251;28;20495;-65
2024/02/24 01:46:45;;;;;;;4.30;1.80;;;;;;;5.14;100.00;96968.47;5000642;28;20072;-66
2024/02/24 01:49:10;;;;;;;3.97;1.67;;;;;;;5.28;100.00;96987.75;4989039;28;20064;-65
2024/02/24 01:51:39;;;;;;;4.07;1.38;;;;;;;5.26;100.00;96984.50;4990851;28;20021;-65
2024/02/24 01:54:05;;;;;;;3.85;1.40;;;;;;;5.27;100.00;96984.31;4990890;28;20033;-67
2024/02/24 01:56:32;;;;;;;5.03;1.60;;;;;;;5.38;100.00;96993.59;5004632;28;20034;-66
2024/02/24 01:59:03;;;;;;;3.70;1.38;;;;;;;5.06;100.00;96953.75;4989243;28;20597;-67
2024/02/24 02:01:32;;;;;;;5.80;1.50;;;;;;;5.23;100.00;96982.22;5008932;28;20029;-65
2024/02/24 02:04:00;;;;;;;3.90;1.60;;;;;;;5.14;100.00;96987.31;5001487;28;20030;-66
2024/02/24 02:06:28;;;;;;;3.85;1.20;;;;;;;4.87;100.00;96941.84;5007390;28;20038;-66
2024/02/24 02:08:55;;;;;;;3.50;1.40;;;;;;;5.11;100.00;96982.47;4987307;28;20033;-64
2024/02/24 02:11:23;;;;;;;3.65;1.20;;;;;;;5.14;100.00;96984.72;5007522;28;20131;-67
2024/02/24 02:13:48;;;;;;;3.38;1.30;;;;;;;5.33;100.00;96983.75;5012634;28;20483;-65
2024/02/24 02:16:14;;;;;;;4.95;1.40;;;;;;;5.04;100.00;96926.53;5013882;28;20030;-66
2024/02/24 02:18:39;;;;;;;3.55;1.40;;;;;;;5.30;100.00;96970.34;5005416;28;20057;-66
2024/02/24 02:21:05;;;;;;;3.97;1.33;;;;;;;5.12;100.00;96932.53;4997096;28;20074;-66
2024/02/24 02:23:30;;;;;;;3.38;1.30;;;;;;;5.42;100.00;96976.88;5017047;28;20115;-66
2024/02/24 02:25:59;;;;;;;3.88;1.50;;;;;;;5.15;100.00;96945.13;5009617;28;20033;-67
2024/02/24 02:28:24;;;;;;;4.85;1.80;;;;;;;5.43;100.00;96981.06;5012725;28;20472;-68
2024/02/24 02:30:49;;;;;;;3.55;1.33;;;;;;;5.46;100.00;96967.03;5008192;28;20069;-68
2024/02/24 02:33:15;;;;;;;5.55;1.40;;;;;;;5.53;100.00;96968.88;5010761;28;20116;-69
2024/02/24 02:35:40;;;;;;;4.05;1.70;;;;;;;5.50;100.00;96970.94;5013266;28;20061;-68
2024/02/24 02:38:09;;;;;;;4.63;1.63;;;;;;;5.46;100.00;96973.03;5011085;28;20025;-68
2024/02/24 02:40:34;;;;;;;5.03;1.95;;;;;;;5.44;100.00;96987.00;5012117;28;20041;-69
2024/02/24 02:43:02;;;;;;;5.00;1.40;;;;;;;5.38;100.00;96985.84;4995540;28;20025;-69
2024/02/24 02:45:30;;;;;;;3.72;1.33;;;;;;;5.37;100.00;96989.41;5013715;28;20044;-69
2024/02/24 02:47:55;;;;;;;5.53;1.58;;;;;;;5.48;100.00;97008.97;5007881;28;20030;-69
2024/02/24 02:50:21;;;;;;;3.72;1.40;;;;;;;5.53;100.00;97022.19;5029263;28;20119;-67
2024/02/24 02:52:49;;;;;;;5.00;1.77;;;;;;;5.30;100.00;97014.16;5007301;28;20685;-68
2024/02/24 02:55:17;;;;;;;4.07;1.50;;;;;;;5.36;100.00;97013.56;4996550;28;20709;-69
2024/02/24 02:57:46;;;;;;;4.50;1.33;;;;;;;5.29;100.00;97000.44;4990977;28;20171;-68
2024/02/24 03:00:11;;;;;;;4.28;1.33;;;;;;;5.23;100.00;97005.41;5009009;28;20699;-69
2024/02/24 03:02:39;;;;;;;3.92;1.40;;;;;;;5.22;100.00;97008.94;5004817;28;20113;-68
2024/02/24 03:05:07;;;;;;;3.75;1.40;;;;;;;5.08;100.00;97005.94;5010988;28;20018;-68
2024/02/24 03:07:33;;;;;;;4.20;1.60;;;;;;;5.13;100.00;97003.75;5021930;28;20026;-68
2024/02/24 03:09:58;;;;;;;4.40;1.75;;;;;;;4.99;100.00;96976.72;5005293;28;20112;-67
2024/02/24 03:12:23;;;;;;;4.15;1.55;;;;;;;5.23;100.00;97021.69;4996086;28;20715;-68
2024/02/24 03:14:49;;;;;;;3.80;1.50;;;;;;;5.28;100.00;97028.97;5024928;28;20033;-68
2024/02/24 03:17:16;;;;;;;5.45;1.40;;;;;;;5.25;100.00;97032.63;5013046;28;20759;-69
2024/02/24 03:19:44;;;;;;;5.40;1.95;;;;;;;5.25;100.00;97040.38;5014353;28;20543;-67
2024/02/24 03:22:09;;;;;;;4.90;1.70;;;;;;;5.06;100.00;97056.81;5011756;28;20096;-68
2024/02/24 03:24:35;;;;;;;4.15;1.67;;;;;;;5.01;100.00;97051.28;5011655;28;20037;-68
2024/02/24 03:27:01;;;;;;;4.80;1.58;;;;;;;4.72;100.00;97038.63;5007846;28;20026;-69
2024/02/24 03:29:26;;;;;;;3.95;1.33;;;;;;;4.93;100.00;97043.50;5004787;28;20033;-68
2024/02/24 03:31:52;;;;;;;3.47;1.30;;;;;;;5.05;100.00;97041.50;4993250;28;20041;-68
2024/02/24 03:34:17;;;;;;;5.32;1.60;;;;;;;5.09;100.00;97038.50;5008593;28;20069;-67
2024/02/24 03:36:43;;;;;;;3.47;1.30;;;;;;;4.98;100.00;97036.13;4996171;28;20025;-68
2024/02/24 03:39:09;;;;;;;5.57;1.50;;;;;;;4.55;100.00;96984.41;5002416;28;20025;-67
2024/02/24 03:41:37;;;;;;;3.90;1.40;;;;;;;5.05;100.00;97037.16;5010950;28;20681;-66
2024/02/24 03:44:02;;;;;;;5.15;1.92;;;;;;;5.06;100.00;97025.91;5007054;28;20111;-68
2024/02/24 03:46:30;;;;;;;5.13;1.90;;;;;;;4.94;100.00;97019.34;5005666;28;20034;-67
2024/02/24 03:49:00;;;;;;;4.38;1.65;;;;;;;5.08;100.00;97030.91;4991053;28;20129;-68
2024/02/24 03:51:25;;;;;;;4.78;1.73;;;;;;;5.13;100.00;97037.22;5013794;28;20045;-66
2024/02/24 03:53:53;;;;;;;5.38;2.05;;;;;;;5.08;100.00;97036.06;5010705;28;20090;-67
2024/02/24 03:56:21;;;;;;;7.53;2.40;;;;;;;5.09;100.00;97041.06;5014844;28;20040;-67
2024/02/24 03:58:49;;;;;;;5.57;2.13;;;;;;;5.13;100.00;97049.28;4995654;28;20030;-67
2024/02/24 04:01:14;;;;;;;4.90;2.10;;;;;;;5.19;100.00;97052.09;5006328;28;20021;-67
2024/02/24 04:03:42;;;;;;;6.10;1.88;;;;;;;5.07;100.00;97053.25;5005486;28;20080;-67
2024/02/24 04:06:07;;;;;;;5.50;2.25;;;;;;;5.21;100.00;97069.97;5007849;28;20033;-67
2024/02/24 04:08:33;;;;;;;5.72;2.40;;;;;;;5.19;100.00;97075.28;5006055;28;20063;-67
2024/02/24 04:11:01;;;;;;;5.57;2.28;;;;;;;5.19;100.00;97092.50;5010430;28;20050;-68
2024/02/24 04:13:26;;;;;;;6.20;2.63;;;;;;;5.30;100.00;97097.44;4996919;28;20024;-68
2024/02/24 04:15:52;;;;;;;5.13;2.30;;;;;;;5.26;100.00;97090.16;5010656;28;20041;-67
2024/02/24 04:18:17;;;;;;;7.57;2.55;;;;;;;5.39;100.00;97111.22;5006344;28;20031;-69
2024/02/24 04:20:46;;;;;;;7.22;2.72;;;;;;;5.35;100.00;97104.75;5009598;28;20065;-68
2024/02/24 04:23:16;;;;;;;6.38;2.50;;;;;;;5.34;100.00;97101.34;5007137;28;20030;-69
2024/02/24 04:25:42;;;;;;;6.38;2.08;;;;;;;5.27;100.00;97107.22;4996901;28;20034;-68
2024/02/24 04:28:08;;;;;;;5.05;1.83;;;;;;;5.14;100.00;97116.13;4995845;28;20160;-70
2024/02/24 04:30:35;;;;;;;5.57;1.90;;;;;;;5.00;100.00;97112.31;4995981;28;20040;-70
2024/02/24 04:33:02;;;;;;;5.82;1.88;;;;;;;4.91;100.00;97107.22;4991510;28;20069;-69
2024/02/24 04:35:28;;;;;;;6.07;1.85;;;;;;;4.84;100.00;97099.28;5011033;28;20037;-70
2024/02/24 04:37:56;;;;;;;6.07;1.98;;;;;;;4.95;100.00;97100.84;5009932;28;20770;-72
2024/02/24 04:40:21;;;;;;;4.85;1.50;;;;;;;4.86;100.00;97101.72;5009116;28;20033;-70
2024/02/24 04:42:46;;;;;;;5.18;1.80;;;;;;;4.80;100.00;97100.50;5013171;28;20052;-71
2024/02/24 04:45:12;;;;;;;3.80;1.40;;;;;;;4.93;100.00;97102.75;4996347;28;20033;-72
2024/02/24 04:47:37;;;;;;;4.95;1.98;;;;;;;4.97;100.00;97081.69;5005502;28;20064;-72
2024/02/24 04:50:05;;;;;;;3.63;1.35;;;;;;;5.09;100.00;97086.63;4995012;28;20112;-71
2024/02/24 04:52:31;;;;;;;4.60;1.58;;;;;;;5.18;100.00;97085.72;5012301;28;20439;-72
2024/02/24 04:54:57;;;;;;;5.50;1.60;;;;;;;5.12;100.00;97083.75;5014969;28;20072;-71
2024/02/24 04:57:23;;;;;;;4.03;1.45;;;;;;;4.89;100.00;97042.16;5005388;28;20045;-70
2024/02/24 04:59:48;;;;;;;4.53;1.60;;;;;;;5.06;100.00;97087.72;5011893;28;20542;-71
2024/02/24 05:02:14;;;;;;;5.15;1.40;;;;;;;5.07;100.00;97078.22;5009488;28;20032;-70
2024/02/24 05:04:39;;;;;;;3.95;1.50;;;;;;;5.09;100.00;97084.88;5003818;28;20032;-70
2024/02/24 05:07:07;;;;;;;3.85;1.38;;;;;;;5.12;100.00;97087.13;5011655;28;20103;-69
2024/02/24 05:09:32;;;;;;;4.00;1.50;;;;;;;5.24;100.00;97102.38;5003475;28;20046;-70
2024/02/24 05:11:59;;;;;;;5.65;1.55;;;;;;;5.29;100.00;97111.28;4999098;28;20030;-70
2024/02/24 05:14:25;;;;;;;6.78;1.52;;;;;;;5.24;100.00;97126.38;5016861;28;20048;-69
2024/02/24 05:16:57;;;;;;;6.20;1.88;;;;;;;5.20;100.00;97123.28;5014012;28;20025;-69
2024/02/24 05:19:23;;;;;;;5.03;1.70;;;;;;;5.23;100.00;97123.94;4990766;28;20025;-69
2024/02/24 05:21:48;;;;;;;4.60;1.40;;;;;;;5.17;100.00;97135.66;5012781;28;20037;-70
2024/02/24 05:24:16;;;;;;;4.78;1.70;;;;;;;5.11;100.00;97129.34;4992105;28;20041;-68
2024/02/24 05:26:44;;;;;;;4.18;1.50;;;;;;;5.11;100.00;97125.91;5012633;28;20116;-68
2024/02/24 05:29:09;;;;;;;4.93;1.50;;;;;;;4.85;100.00;97090.56;4999039;28;20051;-70
2024/02/24 05:31:34;;;;;;;4.40;1.60;;;;;;;5.20;100.00;97138.75;5007676;28;20038;-70
2024/02/24 05:34:00;;;;;;;4.30;1.65;;;;;;;5.17;100.00;97126.16;4994807;28;20112;-70
2024/02/24 05:36:25;;;;;;;5.05;1.70;;;;;;;5.26;100.00;97128.81;4997897;28;20596;-68
2024/02/24 05:38:51;;;;;;;3.72;1.50;;;;;;;5.33;100.00;97119.50;4992809;28;20033;-68
2024/02/24 05:41:18;;;;;;;4.03;1.60;;;;;;;5.35;100.00;97125.34;5007030;28;20095;-68
2024/02/24 05:43:44;;;;;;;4.28;1.75;;;;;;;5.25;100.00;97107.38;5007616;28;21117;-68
2024/02/24 05:46:09;;;;;;;4.78;1.50;;;;;;;5.14;100.00;97092.94;5011443;28;20025;-68
2024/02/24 05:48:37;;;;;;;4.25;1.48;;;;;;;5.48;100.00;97154.13;5010406;28;20486;-68
2024/02/24 05:51:08;;;;;;;4.10;1.58;;;;;;;5.27;100.00;97131.22;5027017;28;20452;-68
2024/02/24 05:53:34;;;;;;;4.10;1.80;;;;;;;5.42;100.00;97174.53;5004433;28;20116;-68
2024/02/24 05:56:02;;;;;;;5.43;1.88;;;;;;;5.37;100.00;97173.22;5027105;28;20069;-69
2024/02/24 05:58:27;;;;;;;5.57;2.20;;;;;;;5.28;100.00;97157.84;4992860;28;20045;-69
2024/02/24 06:00:52;;;;;;;5.22;1.80;;;;;;;5.07;100.00;97150.38;5000707;28;20046;-68
2024/02/24 06:03:18;;;;;;;5.07;1.70;;;;;;;5.26;100.00;97204.38;4994140;28;20112;-68
2024/02/24 06:05:46;;;;;;;4.40;1.90;;;;;;;5.24;100.00;97198.53;5013175;28;20121;-68
2024/02/24 06:08:12;;;;;;;5.32;2.42;;;;;;;5.30;100.00;97200.53;5017021;28;20807;-73
2024/02/24 06:10:38;;;;;;;5.95;2.00;;;;;;;5.24;100.00;97201.13;5010563;28;20028;-75
2024/02/24 06:13:04;;;;;;;6.00;2.30;;;;;;;5.20;100.00;97198.03;5007751;28;20032;-74
2024/02/24 06:15:32;;;;;;;4.85;2.20;;;;;;;5.11;100.00;97200.66;5008545;28;20104;-76
2024/02/24 06:18:02;;;;;;;6.07;2.40;;;;;;;4.96;100.00;97206.28;5011105;28;20703;-68
2024/02/24 06:20:30;;;;;;;5.72;2.60;;;;;;;5.09;100.00;97213.69;5014026;28;20030;-72
2024/02/24 06:22:56;;;;;;;6.10;2.20;;;;;;;5.23;100.00;97232.19;4989173;28;20037;-70
2024/02/24 06:25:22;;;;;;;6.57;2.58;;;;;;;4.74;100.00;97192.03;5010515;28;20522;-67
2024/02/24 06:27:47;;;;;;;7.25;2.17;;;;;;;4.84;100.00;97224.63;5007006;28;20088;-69
2024/02/24 06:30:13;;;;;;;6.47;1.73;;;;;;;4.43;100.00;97187.16;5010996;28;20662;-69
2024/02/24 06:32:39;;;;;;;5.18;1.92;;;;;;;4.69;100.00;97221.72;5022027;28;20034;-69
2024/02/24 06:35:07;;;;;;;6.50;1.90;;;;;;;4.93;100.00;97244.41;5007461;28;20049;-69
2024/02/24 06:37:34;;;;;;;4.70;1.73;;;;;;;5.01;100.00;97241.94;5009752;28;20033;-68
2024/02/24 06:40:00;;;;;;;4.50;2.20;;;;;;;5.05;100.00;97240.69;4992555;28;20025;-68
2024/02/24 06:42:27;;;;;;;5.15;2.22;;;;;;;4.92;100.00;97235.84;5016488;28;20041;-67
2024/02/24 06:44:53;;;;;;;7.32;2.00;;;;;;;5.05;100.00;97248.41;5003175;28;20037;-68
2024/02/24 06:47:20;;;;;;;6.38;2.08;;;;;;;5.15;100.00;97244.03;5009645;28;20065;-67
2024/02/24 06:49:48;;;;;;;5.10;1.73;;;;;;;4.93;100.00;97209.16;4993904;28;20026;-67
2024/02/24 06:52:14;;;;;;;4.45;1.73;;;;;;;5.01;100.00;97237.56;5012724;28;20481;-68
2024/02/24 06:54:40;;;;;;;5.22;1.70;;;;;;;5.15;100.00;97256.09;5015408;28;20025;-66
2024/02/24 06:57:08;;;;;;;4.30;1.60;;;;;;;5.26;100.00;97253.34;4992404;28;20025;-68
2024/02/24 06:59:34;;;;;;;4.68;1.85;;;;;;;5.45;100.00;97267.84;4993382;28;20650;-67
2024/02/24 07:01:59;;;;;;;5.07;1.77;;;;;;;5.25;100.00;97256.06;4993722;28;20041;-68
2024/02/24 07:04:25;;;;;;;4.63;1.73;;;;;;;4.96;100.00;97228.66;5013051;28;20029;-68
2024/02/24 07:06:50;;;;;;;5.03;1.83;;;;;;;5.25;100.00;97279.25;5009819;28;20060;-66
2024/02/24 07:09:15;;;;;;;4.13;1.70;;;;;;;5.37;100.00;97288.41;5011174;28;20127;-69
2024/02/24 07:11:46;;;;;;;4.57;1.55;;;;;;;5.33;100.00;97287.06;5003885;28;20167;-67
2024/02/24 07:14:11;;;;;;;4.35;1.42;;;;;;;5.19;100.00;97294.31;4990686;28;20061;-67
2024/02/24 07:16:36;;;;;;;4.30;1.60;;;;;;;5.33;100.00;97290.47;4998579;28;20025;-67
2024/02/24 07:19:02;;;;;;;4.10;1.45;;;;;;;5.37;100.00;97289.22;5008183;28;20295;-68
2024/02/24 07:21:35;;;;;;;4.72;1.70;;;;;;;5.49;100.00;97292.38;5012339;28;20041;-67
2024/02/24 07:24:01;;;;;;;3.58;1.42;;;;;;;5.43;100.00;97299.91;5008340;28;20636;-68
2024/02/24 07:26:26;;;;;;;4.03;1.50;;;;;;;5.29;100.00;97302.00;5012285;28;20030;-67
2024/02/24 07:28:51;;;;;;;4.70;1.60;;;;;;;5.25;100.00;97305.81;5010128;28;20102;-68
2024/02/24 07:31:19;;;;;;;5.72;1.20;;;;;;;5.23;100.00;97309.50;5017455;28;20883;-68
2024/02/24 07:33:44;;;;;;;3.67;1.05;;;;;;;5.21;100.00;97319.94;5009612;28;20029;-68
2024/02/24 07:36:10;;;;;;;3.08;1.10;;;;;;;5.14;100.00;97324.03;4994350;28;20032;-68
2024/02/24 07:38:39;;;;;;;3.28;1.08;;;;;;;5.11;100.00;97319.16;4990858;28;20037;-67
2024/02/24 07:41:07;;;;;;;4.28;1.33;;;;;;;5.08;100.00;97314.31;5003641;28;20029;-68
2024/02/24 07:43:40;;;;;;;4.30;1.27;;;;;;;5.00;100.00;97307.28;5003571;28;20129;-66
2024/02/24 07:46:06;;;;;;;3.40;1.00;;;;;;;4.72;100.00;97268.59;4999770;28;20121;-68
2024/02/24 07:48:31;;;;;;;2.65;0.95;;;;;;;4.94;100.00;97343.91;4982177;28;20029;-68
2024/02/24 07:50:56;;;;;;;3.10;1.10;;;;;;;5.07;100.00;97375.31;5005537;28;20115;-68
2024/02/24 07:53:24;;;;;;;3.92;1.27;;;;;;;5.10;100.00;97375.06;5011290;28;20825;-67
2024/02/24 07:55:52;;;;;;;4.20;1.45;;;;;;;5.05;100.00;97356.63;4993317;28;20119;-66
2024/02/24 07:58:20;;;;;;;3.38;1.10;;;;;;;5.04;100.00;97361.91;4987357;28;20056;-68
2024/02/24 08:00:48;;;;;;;3.17;1.08;;;;;;;4.83;100.00;97352.63;4993163;28;20049;-67
2024/02/24 08:03:13;;;;;;;3.22;1.02;;;;;;;4.91;100.00;97369.94;5010017;28;20685;-70
2024/02/24 08:05:38;;;;;;;2.50;0.90;;;;;;;4.95;100.00;97371.31;4991462;28;20057;-68
2024/02/24 08:08:06;;;;;;;3.90;1.00;;;;;;;4.95;100.00;97387.56;5010793;28;20778;-68
2024/02/24 08:10:36;;;;;;;3.40;1.13;;;;;;;4.88;100.00;97401.94;4996449;28;20105;-69
2024/02/24 08:13:02;;;;;;;3.88;1.40;;;;;;;4.58;100.00;97354.84;5008999;28;20033;-68
2024/02/24 08:15:27;;;;;;;4.35;1.80;;;;;;;4.87;100.00;97396.94;4995847;28;20119;-69
2024/02/24 08:17:58;;;;;;;4.43;1.15;;;;;;;4.79;100.00;97405.34;4989630;28;20127;-67
2024/02/24 08:20:25;;;;;;;4.40;1.35;;;;;;;4.78;100.00;97396.00;5006442;28;20779;-67
2024/02/24 08:22:52;;;;;;;4.50;1.50;;;;;;;4.74;100.00;97403.19;5014985;28;20095;-67
2024/02/24 08:25:19;;;;;;;3.17;1.20;;;;;;;4.76;100.00;97403.03;5013123;28;20112;-67
2024/02/24 08:27:47;;;;;;;3.67;1.20;;;;;;;4.63;100.00;97399.00;4994503;28;20033;-67
2024/02/24 08:30:13;;;;;;;4.72;2.03;;;;;;;4.40;100.00;97356.50;5007167;28;20034;-69
2024/02/24 08:32:38;;;;;;;4.80;2.20;;;;;;;4.66;100.00;97400.50;5009126;28;20040;-69
2024/02/24 08:35:04;;;;;;;3.38;1.13;;;;;;;4.82;100.00;97403.31;4992273;28;20040;-69
2024/02/24 08:37:32;;;;;;;4.80;1.23;;;;;;;4.80;100.00;97400.06;5000167;28;20572;-68
2024/02/24 08:39:57;;;;;;;4.20;1.63;;;;;;;4.78;100.00;97417.44;5007933;28;20039;-69
2024/02/24 08:42:23;;;;;;;5.15;2.03;;;;;;;4.84;100.00;97416.06;4994468;28;20096;-67
2024/02/24 08:44:48;;;;;;;3.90;1.45;;;;;;;4.65;100.00;97392.91;5010238;28;20073;-71
2024/02/24 08:47:16;;;;;;;5.50;2.33;;;;;;;4.76;100.00;97432.22;5004048;28;20115;-70
2024/02/24 08:49:43;;;;;;;4.57;1.60;;;;;;;4.66;100.00;97397.13;5006686;28;20049;-70
2024/02/24 08:52:09;;;;;;;2.75;1.00;;;;;;;4.81;100.00;97447.25;5010319;28;20598;-68
2024/02/24 08:54:37;;;;;;;3.80;1.23;;;;;;;4.64;100.00;97461.63;5012140;28;20026;-68
2024/02/24 08:57:02;;;;;;;3.85;1.30;;;;;;;4.61;100.00;97464.44;5011525;28;21530;-70
2024/02/24 08:59:30;;;;;;;6.82;1.30;;;;;;;4.53;100.00;97461.75;5006779;28;20045;-70
2024/02/24 09:01:55;;;;;;;3.65;1.20;;;;;;;4.53;100.00;97454.03;4997182;28;20033;-70
2024/02/24 09:04:21;;;;;;;4.40;1.42;;;;;;;4.65;100.00;97459.84;5012500;28;20041;-67
2024/02/24 09:06:48;;;;;;;3.80;1.33;;;;;;;4.69;100.00;97453.47;5007346;28;20621;-67
2024/02/24 09:09:14;;;;;;;2.42;0.88;;;;;;;4.54;100.00;97404.16;4990532;28;20109;-69
2024/02/24 09:11:47;;;;;;;4.15;1.20;;;;;;;4.87;100.00;97446.69;4993923;28;20692;-66
2024/02/24 09:14:15;;;;;;;3.45;1.30;;;;;;;4.73;100.00;97455.66;4993420;28;20029;-69
2024/02/24 09:16:41;;;;;;;2.60;0.90;;;;;;;4.79;100.00;97444.00;5008464;28;20026;-69
2024/02/24 09:19:06;;;;;;;3.15;1.10;;;;;;;4.84;100.00;97448.72;4997516;28;20041;-67
2024/02/24 09:21:34;;;;;;;3.47;1.15;;;;;;;4.94;100.00;97444.38;5000062;28;20091;-68
2024/02/24 09:23:59;;;;;;;3.10;1.10;;;;;;;5.03;100.00;97440.97;5010933;28;20103;-69
2024/02/24 09:26:25;;;;;;;3.40;1.10;;;;;;;4.81;100.00;97403.44;5006611;28;20041;-67
2024/02/24 09:28:50;;;;;;;3.08;1.13;;;;;;;5.18;100.00;97446.50;5009955;28;20844;-68
2024/02/24 09:31:18;;;;;;;4.30;1.10;;;;;;;4.78;100.00;97407.13;4997969;28;20184;-68
2024/02/24 09:33:54;;;;;;;3.38;1.17;;;;;;;4.76;100.00;97395.31;5008532;28;20607;-67
2024/02/24 09:36:19;;;;;;;3.05;1.23;;;;;;;5.13;100.00;97451.25;5002836;28;20033;-66
2024/02/24 09:38:47;;;;;;;3.85;1.30;;;;;;;5.03;100.00;97459.00;5011686;28;20069;-69
2024/02/24 09:41:12;;;;;;;3.55;1.50;;;;;;;5.08;100.00;97464.56;5006866;28;20814;-69
2024/02/24 09:43:39;;;;;;;3.60;1.30;;;;;;;5.01;100.00;97461.72;5002281;28;20033;-68
2024/02/24 09:46:05;;;;;;;3.58;1.20;;;;;;;4.77;100.00;97415.78;5007053;28;20033;-68
2024/02/24 09:48:31;;;;;;;4.13;1.70;;;;;;;5.15;100.00;97460.50;4994646;28;20530;-68
2024/02/24 09:50:59;;;;;;;4.30;1.60;;;;;;;5.15;100.00;97455.34;5014521;28;20025;-67
2024/02/24 09:53:24;;;;;;;5.45;2.25;;;;;;;5.16;100.00;97459.53;4998929;28;20098;-63
2024/02/24 09:55:52;;;;;;;5.03;1.42;;;;;;;5.14;100.00;97468.34;5013410;28;20680;-64
2024/02/24 09:58:20;;;;;;;3.42;1.13;;;;;;;4.88;100.00;97432.88;5008183;28;20025;-61
2024/02/24 10:00:53;;;;;;;2.70;0.98;;;;;;;5.18;100.00;97467.13;5011947;28;20143;-64
2024/02/24 10:03:21;;;;;;;3.75;1.20;;;;;;;5.30;100.00;97470.38;5006784;28;20034;-64
2024/02/24 10:05:48;;;;;;;3.10;1.13;;;;;;;5.23;100.00;97485.56;4993923;28;20038;-64
2024/02/24 10:08:16;;;;;;;2.97;1.15;;;;;;;5.24;100.00;97486.38;4988933;28;20157;-63
2024/02/24 10:10:44;;;;;;;2.55;1.10;;;;;;;5.15;100.00;97475.94;5023644;28;20042;-63
2024/02/24 10:13:09;;;;;;;3.25;1.02;;;;;;;5.27;100.00;97470.63;4997904;28;20078;-65
2024/02/24 10:15:35;;;;;;;3.17;1.00;;;;;;;5.35;100.00;97479.31;5012489;28;20100;-63
2024/02/24 10:18:01;;;;;;;4.38;1.10;;;;;;;5.42;100.00;97471.84;4998969;28;20030;-62
2024/02/24 10:20:29;;;;;;;2.90;1.02;;;;;;;5.69;100.00;97478.78;5001601;28;20018;-64
2024/02/24 10:22:55;;;;;;;3.65;1.08;;;;;;;5.67;100.00;97490.19;4988940;28;20781;-64
2024/02/24 10:25:21;;;;;;;3.10;1.05;;;;;;;5.56;100.00;97478.28;5001928;28;20033;-63
2024/02/24 10:27:47;;;;;;;3.30;1.00;;;;;;;5.31;100.00;97446.19;5000865;28;20064;-63
2024/02/24 10:30:13;;;;;;;2.78;1.10;;;;;;;5.55;100.00;97495.53;5001888;28;20038;-66
2024/02/24 10:32:39;;;;;;;3.72;1.30;;;;;;;5.49;100.00;97501.22;4979574;28;20556;-63
2024/02/24 10:35:06;;;;;;;3.05;1.00;;;;;;;5.41;100.00;97501.13;4991373;28;20036;-66
2024/02/24 10:37:32;;;;;;;2.90;1.10;;;;;;;5.41;100.00;97493.41;5003657;28;20055;-63
2024/02/24 10:39:59;;;;;;;3.15;1.00;;;;;;;5.55;100.00;97500.69;4982755;28;20053;-64
2024/02/24 10:42:28;;;;;;;4.18;1.05;;;;;;;5.55;100.00;97508.44;4984971;28;20038;-63
2024/02/24 10:44:54;;;;;;;3.47;1.20;;;;;;;5.53;100.00;97500.03;5001511;28;21283;-64
2024/02/24 10:47:24;;;;;;;2.83;1.05;;;;;;;5.63;100.00;97499.19;5016872;28;20078;-64
2024/02/24 10:49:52;;;;;;;3.20;1.20;;;;;;;5.59;100.00;97499.44;4998730;28;20026;-63
2024/02/24 10:52:18;;;;;;;3.53;1.13;;;;;;;5.16;100.00;97450.97;5007334;28;20755;-64
2024/02/24 10:54:45;;;;;;;3.55;1.20;;;;;;;5.35;100.00;97465.59;5001626;28;20064;-62
2024/02/24 10:57:11;;;;;;;2.78;1.00;;;;;;;5.63;100.00;97496.59;5001970;28;20068;-67
2024/02/24 10:59:37;;;;;;;3.85;1.42;;;;;;;5.65;100.00;97503.22;5005008;28;20144;-65
2024/02/24 11:02:03;;;;;;;3.20;1.13;;;;;;;5.27;100.00;97445.66;4990333;28;20033;-63
2024/02/24 11:04:33;;;;;;;3.17;1.17;;;;;;;5.64;100.00;97496.47;5005549;28;20244;-64
2024/02/24 11:07:00;;;;;;;3.60;1.30;;;;;;;5.65;100.00;97500.66;5003050;28;20033;-62
2024/02/24 11:09:33;;;;;;;2.95;1.10;;;;;;;5.66;100.00;97507.44;4981825;28;20124;-62
2024/02/24 11:12:10;;;;;;;4.40;1.70;;;;;;;5.78;100.00;97503.72;4988255;28;20272;-64
2024/02/24 11:14:45;;;;;;;3.70;1.50;;;;;;;5.68;100.00;97489.25;4997821;28;20494;-63
2024/02/24 11:17:11;;;;;;;4.28;1.35;;;;;;;5.75;100.00;97504.03;5013831;28;20022;-64
2024/02/24 11:19:43;;;;;;;4.78;1.38;;;;;;;5.91;100.00;97507.75;4990614;28;20052;-64
2024/02/24 11:22:17;;;;;;;4.05;1.30;;;;;;;5.86;100.00;97505.63;4996813;28;20512;-64
2024/02/24 11:24:43;;;;;;;3.60;1.45;;;;;;;5.56;100.00;97467.97;4998260;28;20573;-65
2024/02/24 11:27:10;;;;;;;3.90;1.50;;;;;;;6.00;100.00;97494.03;4984247;28;20030;-61
2024/02/24 11:29:36;;;;;;;3.88;1.48;;;;;;;5.95;100.00;97514.25;5001064;28;20650;-63
2024/02/24 11:32:05;;;;;;;4.63;1.50;;;;;;;6.02;100.00;97511.94;5004215;28;20040;-64